Time;durP1;ratioP1;P1;durP2;ratioP2;P2;SDS_P1;SDS_P2;PMS_P1;PMS_P2;Temp;Humidity;BMP_temperature;BMP_pressure;BME280_temperature;BME280_humidity;BME280_pressure;Samples;Min_cycle;Max_cycle;Signal;HPM_P1;HPM_P2
2021/06/04 00:01:10;;;;;;;13.85;10.07;;;19.60;99.90;;;;;;5092499;28;20030;-64
2021/06/04 00:03:36;;;;;;;12.05;10.85;;;19.60;99.90;;;;;;5092376;28;20032;-64
2021/06/04 00:06:03;;;;;;;13.60;11.13;;;19.60;99.90;;;;;;5092375;28;20028;-64
2021/06/04 00:08:31;;;;;;;11.10;9.80;;;19.60;99.90;;;;;;5092277;28;20032;-64
2021/06/04 00:11:10;;;;;;;13.98;10.75;;;19.50;99.90;;;;;;5092318;28;20036;-64
2021/06/04 00:13:43;;;;;;;15.20;10.32;;;19.50;99.90;;;;;;5091311;28;20111;-63
2021/06/04 00:16:20;;;;;;;12.85;10.52;;;19.40;99.90;;;;;;5092165;28;20027;-63
2021/06/04 00:18:47;;;;;;;13.68;9.90;;;19.40;99.90;;;;;;5092448;28;20449;-63
2021/06/04 00:21:18;;;;;;;10.85;9.73;;;19.30;99.90;;;;;;5091110;28;20032;-64
2021/06/04 00:23:44;;;;;;;;;;;19.20;99.90;;;;;;5092672;28;20387;-65
2021/06/04 00:26:11;;;;;;;15.23;10.20;;;19.10;99.90;;;;;;5092087;28;19908;-64
2021/06/04 00:28:37;;;;;;;15.00;10.90;;;19.10;99.90;;;;;;5091820;28;20135;-64
2021/06/04 00:31:07;;;;;;;14.73;10.85;;;19.00;99.90;;;;;;5091977;28;20035;-64
2021/06/04 00:33:36;;;;;;;14.40;10.95;;;19.10;99.90;;;;;;5091330;28;20399;-63
2021/06/04 00:36:04;;;;;;;13.95;10.50;;;19.10;99.90;;;;;;5091896;28;20488;-63
2021/06/04 00:38:29;;;;;;;13.35;11.95;;;19.20;99.90;;;;;;5091910;28;20028;-64
2021/06/04 00:41:01;;;;;;;11.70;10.13;;;19.20;99.90;;;;;;5091950;28;20493;-64
2021/06/04 00:43:29;;;;;;;;;;;19.20;99.90;;;;;;5092444;28;20357;-64
2021/06/04 00:45:59;;;;;;;13.63;10.45;;;19.10;99.90;;;;;;5091914;28;19908;-64
2021/06/04 00:48:27;;;;;;;11.77;10.27;;;19.10;99.90;;;;;;5092224;28;20031;-64
2021/06/04 00:51:03;;;;;;;15.63;10.38;;;19.20;99.90;;;;;;5093740;28;20162;-63
2021/06/04 00:53:30;;;;;;;11.50;9.88;;;19.10;99.90;;;;;;5096371;28;20077;-63
2021/06/04 00:55:56;;;;;;;12.52;11.00;;;19.10;99.90;;;;;;5095177;28;20020;-63
2021/06/04 00:58:28;;;;;;;15.18;11.38;;;19.10;99.90;;;;;;5094801;28;20024;-64
2021/06/04 01:00:57;;;;;;;15.00;10.98;;;19.10;99.90;;;;;;5095866;28;20024;-63
2021/06/04 01:03:32;;;;;;;13.65;11.50;;;19.10;99.90;;;;;;5095631;28;20483;-64
2021/06/04 01:06:10;;;;;;;16.33;11.35;;;18.90;99.90;;;;;;5094532;28;20494;-64
2021/06/04 01:09:00;;;;;;;14.30;11.15;;;18.90;99.90;;;;;;5095700;28;20028;-64
2021/06/04 01:11:58;;;;;;;15.23;11.73;;;18.80;99.90;;;;;;5095802;28;20458;-63
2021/06/04 01:14:24;;;;;;;15.25;11.82;;;18.80;99.90;;;;;;5094468;28;20035;-64
2021/06/04 01:17:11;;;;;;;16.63;13.45;;;18.90;99.90;;;;;;5095556;28;20024;-63
2021/06/04 01:19:55;;;;;;;15.85;13.05;;;18.90;99.90;;;;;;5095496;28;20028;-64
2021/06/04 01:22:38;;;;;;;15.63;13.65;;;18.80;99.90;;;;;;5095734;28;20036;-63
2021/06/04 01:25:07;;;;;;;19.05;13.30;;;18.80;99.90;;;;;;5095235;28;20368;-63
2021/06/04 01:27:39;;;;;;;17.45;14.43;;;18.80;99.90;;;;;;5095351;28;20107;-63
2021/06/04 01:30:25;;;;;;;18.40;14.02;;;18.80;99.90;;;;;;5095067;28;20056;-64
2021/06/04 01:32:54;;;;;;;16.77;13.65;;;18.70;99.90;;;;;;5095336;28;20028;-64
2021/06/04 01:35:36;;;;;;;16.98;12.90;;;18.60;99.90;;;;;;5095269;28;20367;-63
2021/06/04 01:38:03;;;;;;;16.40;13.90;;;18.50;99.90;;;;;;5095131;28;20111;-65
2021/06/04 01:40:36;;;;;;;17.63;12.93;;;18.40;99.90;;;;;;5093855;28;20028;-64
2021/06/04 01:43:09;;;;;;;16.38;13.93;;;18.30;99.90;;;;;;5095090;28;20088;-63
2021/06/04 01:45:41;;;;;;;19.17;14.60;;;18.30;99.90;;;;;;5095004;28;20028;-64
2021/06/04 01:48:16;;;;;;;15.93;12.73;;;18.30;99.90;;;;;;5095039;28;20051;-63
2021/06/04 01:50:50;;;;;;;20.42;17.17;;;18.20;99.90;;;;;;5095228;28;20046;-64
2021/06/04 01:53:25;;;;;;;18.13;14.93;;;18.20;99.90;;;;;;5094864;28;20026;-64
2021/06/04 01:55:58;;;;;;;20.27;16.27;;;18.30;99.90;;;;;;5094764;28;20409;-65
2021/06/04 01:58:44;;;;;;;26.52;16.92;;;18.30;99.90;;;;;;5094690;28;20024;-64
2021/06/04 02:01:31;;;;;;;20.42;16.75;;;18.30;99.90;;;;;;5094150;28;20104;-64
2021/06/04 02:03:59;;;;;;;26.85;17.15;;;18.30;99.90;;;;;;5073773;28;20020;-64
2021/06/04 02:06:27;;;;;;;21.85;18.15;;;18.20;99.90;;;;;;5074295;28;20411;-64
2021/06/04 02:08:56;;;;;;;25.33;17.83;;;18.30;99.90;;;;;;5074131;28;20073;-64
2021/06/04 02:11:25;;;;;;;25.67;19.17;;;18.30;99.90;;;;;;5074076;28;20073;-64
2021/06/04 02:13:51;;;;;;;23.88;18.00;;;18.20;99.90;;;;;;5074148;28;20028;-64
2021/06/04 02:16:34;;;;;;;27.63;19.85;;;18.00;99.90;;;;;;5072879;28;20417;-63
2021/06/04 02:19:05;;;;;;;24.05;18.70;;;18.00;99.90;;;;;;5074099;28;20032;-63
2021/06/04 02:21:43;;;;;;;22.25;18.63;;;18.00;99.90;;;;;;5074124;28;20031;-63
2021/06/04 02:24:24;;;;;;;23.83;18.83;;;17.90;99.90;;;;;;5074016;28;20036;-64
2021/06/04 02:26:55;;;;;;;20.80;16.73;;;17.90;99.90;;;;;;5074052;28;20024;-64
2021/06/04 02:29:30;;;;;;;22.27;17.10;;;17.70;99.90;;;;;;5073692;28;20037;-64
2021/06/04 02:32:20;;;;;;;25.13;19.35;;;17.70;99.90;;;;;;5077702;28;20032;-63
2021/06/04 02:35:00;;;;;;;22.20;18.77;;;17.60;99.90;;;;;;5093022;28;20082;-65
2021/06/04 02:37:57;;;;;;;24.65;17.10;;;17.60;99.90;;;;;;5093996;28;20706;-64
2021/06/04 02:40:36;;;;;;;25.35;19.83;;;17.50;99.90;;;;;;5093693;28;20090;-64
2021/06/04 02:43:31;;;;;;;25.50;21.42;;;17.50;99.90;;;;;;5093105;28;20449;-63
2021/06/04 02:46:22;;;;;;;22.42;19.52;;;17.60;99.90;;;;;;5093720;28;20070;-64
2021/06/04 02:48:50;;;;;;;26.48;19.13;;;17.80;99.90;;;;;;5093661;28;20403;-64
2021/06/04 02:51:19;;;;;;;26.02;20.42;;;17.70;99.90;;;;;;5093596;28;20469;-63
2021/06/04 02:53:55;;;;;;;23.55;18.27;;;17.70;99.90;;;;;;5093715;28;20533;-64
2021/06/04 02:56:52;;;;;;;29.20;20.15;;;17.70;99.90;;;;;;5093571;28;20031;-64
2021/06/04 02:59:33;;;;;;;21.95;18.42;;;17.60;99.90;;;;;;5088905;28;20054;-64
2021/06/04 03:02:06;;;;;;;23.90;19.60;;;17.70;99.90;;;;;;5092469;28;20032;-64
2021/06/04 03:04:35;;;;;;;27.35;20.30;;;17.60;99.90;;;;;;5093357;28;20020;-64
2021/06/04 03:07:06;;;;;;;28.85;19.98;;;17.60;99.90;;;;;;5092275;28;20441;-63
2021/06/04 03:09:36;;;;;;;27.67;19.63;;;17.60;99.90;;;;;;5093064;28;20088;-64
2021/06/04 03:12:16;;;;;;;26.52;19.60;;;17.50;99.90;;;;;;5093249;28;20405;-63
2021/06/04 03:14:47;;;;;;;28.65;21.25;;;17.60;99.90;;;;;;5092456;28;20024;-64
2021/06/04 03:17:16;;;;;;;30.00;20.98;;;17.70;99.90;;;;;;5093158;28;20035;-64
2021/06/04 03:19:42;;;;;;;29.48;20.45;;;17.70;99.90;;;;;;5093067;28;20353;-63
2021/06/04 03:22:24;;;;;;;22.38;17.80;;;17.60;99.90;;;;;;5092052;28;20353;-64
2021/06/04 03:24:50;;;;;;;24.08;19.75;;;17.50;99.90;;;;;;5092888;28;20047;-63
2021/06/04 03:27:19;;;;;;;24.15;18.42;;;17.50;99.90;;;;;;5091886;28;20092;-64
2021/06/04 03:29:45;;;;;;;23.75;18.35;;;17.50;99.90;;;;;;5092596;28;20143;-64
2021/06/04 03:32:13;;;;;;;25.80;20.02;;;17.40;99.90;;;;;;5092921;28;20043;-64
2021/06/04 03:34:41;;;;;;;27.92;20.52;;;17.40;99.90;;;;;;5089662;28;20713;-73
2021/06/04 03:37:08;;;;;;;26.25;20.05;;;17.50;99.90;;;;;;5074050;28;20021;-73
2021/06/04 03:39:40;;;;;;;28.63;20.50;;;17.60;99.90;;;;;;5071995;28;20029;-73
2021/06/04 03:42:11;;;;;;;26.85;19.70;;;17.50;99.90;;;;;;5072077;28;20529;-74
2021/06/04 03:44:39;;;;;;;28.42;18.73;;;17.60;99.90;;;;;;5071917;28;20210;-73
2021/06/04 03:47:05;;;;;;;25.95;19.27;;;17.50;99.90;;;;;;5072026;28;20349;-74
2021/06/04 03:49:31;;;;;;;26.15;19.92;;;17.50;99.90;;;;;;5071835;28;20024;-73
2021/06/04 03:52:01;;;;;;;30.40;21.50;;;17.60;99.90;;;;;;5071821;28;20025;-73
2021/06/04 03:54:31;;;;;;;28.58;21.48;;;17.60;99.90;;;;;;5070692;28;20100;-72
2021/06/04 03:56:57;;;;;;;26.55;20.48;;;17.60;99.90;;;;;;5071749;28;20051;-73
2021/06/04 03:59:24;;;;;;;27.65;21.67;;;17.60;99.90;;;;;;5071737;28;20096;-73
2021/06/04 04:01:57;;;;;;;27.45;21.65;;;17.50;99.90;;;;;;5070817;28;20087;-73
2021/06/04 04:04:25;;;;;;;27.67;19.15;;;17.40;99.90;;;;;;5084345;28;20035;-73
2021/06/04 04:06:53;;;;;;;28.55;21.65;;;17.40;99.90;;;;;;5092272;28;20051;-73
2021/06/04 04:09:20;;;;;;;26.75;21.23;;;17.40;99.90;;;;;;5091905;28;20194;-73
2021/06/04 04:11:50;;;;;;;27.80;21.63;;;17.50;99.90;;;;;;5090817;28;20330;-73
2021/06/04 04:14:19;;;;;;;26.83;20.63;;;17.70;99.90;;;;;;5091886;28;20027;-73
2021/06/04 04:16:44;;;;;;;32.33;21.70;;;17.80;99.90;;;;;;5091919;28;20085;-72
2021/06/04 04:19:14;;;;;;;26.30;19.90;;;17.70;99.90;;;;;;5091760;28;20036;-73
2021/06/04 04:21:41;;;;;;;23.65;19.08;;;17.70;99.90;;;;;;5091893;28;20441;-74
2021/06/04 04:24:22;;;;;;;25.17;18.88;;;17.80;99.90;;;;;;5091642;28;20640;-73
2021/06/04 04:26:51;;;;;;;22.08;18.20;;;18.00;99.90;;;;;;5092036;28;20089;-73
2021/06/04 04:29:16;;;;;;;23.00;17.55;;;17.90;99.90;;;;;;5091544;28;20040;-73
2021/06/04 04:31:50;;;;;;;26.60;18.45;;;18.10;99.90;;;;;;5091732;28;20406;-72
2021/06/04 04:34:19;;;;;;;21.88;16.85;;;18.20;99.90;;;;;;5091723;28;20065;-73
2021/06/04 04:36:50;;;;;;;20.83;16.85;;;18.40;99.90;;;;;;5091708;28;20043;-72
2021/06/04 04:39:21;;;;;;;21.70;18.00;;;18.50;99.90;;;;;;5091716;28;20073;-72
2021/06/04 04:41:49;;;;;;;18.80;16.48;;;18.50;99.90;;;;;;5091851;28;20078;-73
2021/06/04 04:44:23;;;;;;;20.25;17.48;;;18.40;99.90;;;;;;5091725;28;20093;-73
2021/06/04 04:46:49;;;;;;;18.33;15.52;;;18.40;99.90;;;;;;5091758;28;20024;-72
2021/06/04 04:49:17;;;;;;;19.85;15.50;;;18.40;99.90;;;;;;5092014;28;20034;-73
2021/06/04 04:51:45;;;;;;;19.45;15.77;;;18.40;99.90;;;;;;5091672;28;20035;-72
2021/06/04 04:54:11;;;;;;;20.15;16.08;;;18.30;99.90;;;;;;5090402;28;20456;-73
2021/06/04 04:56:40;;;;;;;22.35;16.35;;;18.40;99.90;;;;;;5091605;28;20095;-73
2021/06/04 04:59:10;;;;;;;20.67;16.75;;;18.30;99.90;;;;;;5091374;28;20107;-73
2021/06/04 05:01:37;;;;;;;22.85;17.40;;;18.20;99.90;;;;;;5091644;28;20032;-72
2021/06/04 05:04:04;;;;;;;21.45;17.27;;;18.20;99.90;;;;;;5081436;28;20173;-73
2021/06/04 05:06:29;;;;;;;20.88;18.05;;;18.20;99.90;;;;;;5071249;28;20111;-72
2021/06/04 05:08:57;;;;;;;22.88;19.40;;;18.20;99.90;;;;;;5070038;28;20402;-73
2021/06/04 05:11:26;;;;;;;23.67;19.30;;;18.20;99.90;;;;;;5071235;28;20028;-72
2021/06/04 05:13:54;;;;;;;21.35;18.60;;;18.30;99.90;;;;;;5071260;28;20024;-73
2021/06/04 05:16:19;;;;;;;22.50;17.17;;;18.40;99.90;;;;;;5070168;28;20097;-73
2021/06/04 05:18:46;;;;;;;21.60;16.67;;;18.60;99.90;;;;;;5071129;28;20040;-73
2021/06/04 05:21:17;;;;;;;23.38;16.27;;;18.70;99.90;;;;;;5069967;28;20028;-72
2021/06/04 05:23:46;;;;;;;22.48;16.70;;;18.80;99.90;;;;;;5071148;28;20025;-71
2021/06/04 05:26:13;;;;;;;22.83;14.95;;;18.90;99.90;;;;;;5071219;28;20040;-72
2021/06/04 05:28:42;;;;;;;17.00;14.25;;;19.10;99.90;;;;;;5069799;28;20366;-72
2021/06/04 05:31:12;;;;;;;16.00;13.20;;;19.20;99.90;;;;;;5071002;28;20037;-72
2021/06/04 05:33:42;;;;;;;16.30;13.18;;;19.40;99.90;;;;;;5077674;28;20094;-73
2021/06/04 05:36:18;;;;;;;17.07;13.53;;;19.60;99.90;;;;;;5090771;28;20024;-73
2021/06/04 05:38:46;;;;;;;17.23;12.68;;;19.80;99.90;;;;;;5094879;28;20273;-73
2021/06/04 05:41:12;;;;;;;16.33;12.63;;;20.00;99.90;;;;;;5094805;28;20021;-74
2021/06/04 05:43:41;;;;;;;17.00;14.27;;;20.20;99.90;;;;;;5094950;28;20029;-73
2021/06/04 05:46:09;;;;;;;18.77;15.25;;;20.40;99.90;;;;;;5094945;28;20020;-73
2021/06/04 05:48:39;;;;;;;18.42;14.55;;;20.40;99.90;;;;;;5094714;28;20437;-73
2021/06/04 05:51:13;;;;;;;16.95;13.90;;;20.30;99.90;;;;;;5094728;28;20035;-73
2021/06/04 05:53:41;;;;;;;14.55;12.90;;;20.20;99.90;;;;;;5094626;28;20040;-73
2021/06/04 05:56:10;;;;;;;19.55;13.35;;;20.40;99.90;;;;;;5094417;28;20077;-73
2021/06/04 05:58:42;;;;;;;17.50;14.07;;;20.60;99.90;;;;;;5094499;28;20028;-73
2021/06/04 06:01:11;;;;;;;14.85;12.75;;;20.80;99.90;;;;;;5094539;28;20024;-73
2021/06/04 06:03:37;;;;;;;15.70;13.43;;;21.10;99.90;;;;;;5094366;28;20133;-72
2021/06/04 06:06:04;;;;;;;20.92;13.98;;;21.40;99.90;;;;;;5094341;28;20038;-74
2021/06/04 06:08:30;;;;;;;16.45;13.20;;;21.60;99.90;;;;;;5093230;28;20027;-73
2021/06/04 06:10:56;;;;;;;16.48;14.30;;;21.60;99.90;;;;;;5094370;28;20020;-74
2021/06/04 06:13:22;;;;;;;17.45;14.68;;;21.70;99.90;;;;;;5094492;28;20100;-73
2021/06/04 06:15:52;;;;;;;16.55;13.13;;;21.90;99.90;;;;;;5093927;28;20024;-73
2021/06/04 06:18:21;;;;;;;18.17;14.15;;;22.10;99.90;;;;;;5094023;28;20119;-73
2021/06/04 06:20:47;;;;;;;17.50;13.00;;;22.30;99.90;;;;;;5093142;28;20414;-73
2021/06/04 06:23:20;;;;;;;15.32;11.77;;;22.40;99.90;;;;;;5092856;28;20020;-73
2021/06/04 06:25:55;;;;;;;14.68;12.07;;;22.50;99.90;;;;;;5093219;28;20094;-73
2021/06/04 06:28:23;;;;;;;15.30;11.18;;;22.60;99.90;;;;;;5092604;28;20052;-74
2021/06/04 06:30:49;;;;;;;15.50;12.00;;;22.60;99.90;;;;;;5092691;28;20469;-73
2021/06/04 06:33:16;;;;;;;13.07;11.57;;;22.70;99.90;;;;;;5093053;28;20024;-73
2021/06/04 06:35:52;;;;;;;16.80;13.15;;;22.70;99.90;;;;;;5092826;28;20444;-73
2021/06/04 06:38:19;;;;;;;17.95;13.45;;;22.70;99.90;;;;;;5093718;28;20177;-73
2021/06/04 06:40:46;;;;;;;15.48;12.90;;;22.70;99.90;;;;;;5093663;28;20112;-73
2021/06/04 06:43:15;;;;;;;18.13;11.50;;;22.80;99.90;;;;;;5093673;28;20031;-73
2021/06/04 06:45:42;;;;;;;15.77;13.02;;;23.20;99.90;;;;;;5093600;28;20042;-73
2021/06/04 06:48:09;;;;;;;17.83;13.10;;;23.80;99.90;;;;;;5093533;28;20081;-73
2021/06/04 06:50:40;;;;;;;18.13;12.73;;;24.40;99.90;;;;;;5093766;28;20043;-73
2021/06/04 06:53:11;;;;;;;12.45;10.65;;;24.50;99.90;;;;;;5093597;28;20060;-73
2021/06/04 06:55:39;;;;;;;11.82;9.80;;;24.30;99.90;;;;;;5093370;28;20024;-73
2021/06/04 06:58:06;;;;;;;16.70;11.90;;;24.20;99.90;;;;;;5093393;28;20051;-73
2021/06/04 07:00:45;;;;;;;13.55;11.43;;;24.50;99.90;;;;;;5092088;28;20032;-73
2021/06/04 07:03:14;;;;;;;11.40;10.20;;;25.00;99.90;;;;;;5093073;28;20066;-72
2021/06/04 07:05:45;;;;;;;15.80;11.88;;;25.90;99.90;;;;;;5092977;28;20024;-73
2021/06/04 07:08:12;;;;;;;;;;;26.40;99.90;;;;;;5093635;28;20397;-73
2021/06/04 07:10:38;;;;;;;13.52;11.35;;;26.10;99.90;;;;;;5091639;28;19976;-72
2021/06/04 07:13:08;;;;;;;16.40;11.38;;;26.20;99.90;;;;;;5092780;28;20099;-72
2021/06/04 07:15:39;;;;;;;17.05;10.57;;;26.90;99.90;;;;;;5092703;28;20077;-72
2021/06/04 07:18:07;;;;;;;;;;;27.50;99.90;;;;;;5093382;28;20123;-72
2021/06/04 07:20:35;;;;;;;14.80;13.25;;;28.40;99.90;;;;;;5093006;28;19904;-72
2021/06/04 07:23:03;;;;;;;14.48;12.27;;;27.70;99.90;;;;;;5092732;28;20024;-72
2021/06/04 07:25:32;;;;;;;15.60;12.50;;;27.00;99.90;;;;;;5092568;28;20027;-73
2021/06/04 07:28:01;;;;;;;19.02;13.68;;;27.00;99.90;;;;;;5092491;28;20046;-74
2021/06/04 07:30:30;;;;;;;17.38;12.02;;;26.90;99.90;;;;;;5092401;28;20463;-73
2021/06/04 07:33:01;;;;;;;14.88;11.90;;;26.90;99.90;;;;;;5092484;28;20036;-73
2021/06/04 07:35:29;;;;;;;19.17;13.27;;;27.10;99.90;;;;;;5092639;28;20472;-74
2021/06/04 07:37:56;;;;;;;18.48;13.27;;;27.60;99.90;;;;;;5092774;28;20100;-74
2021/06/04 07:40:24;;;;;;;17.27;13.90;;;27.50;99.90;;;;;;5092340;28;20024;-73
2021/06/04 07:42:51;;;;;;;17.52;14.15;;;27.50;99.90;;;;;;5092336;28;20043;-73
2021/06/04 07:45:18;;;;;;;15.05;12.00;;;27.50;99.90;;;;;;5092270;28;20028;-74
2021/06/04 07:47:44;;;;;;;14.85;10.73;;;27.20;99.90;;;;;;5092450;28;20036;-73
2021/06/04 07:50:11;;;;;;;14.50;11.10;;;27.20;99.90;;;;;;5092252;28;20096;-73
2021/06/04 07:52:38;;;;;;;17.50;13.27;;;27.70;99.90;;;;;;5092297;28;20024;-74
2021/06/04 07:55:06;;;;;;;17.02;14.00;;;28.50;99.90;;;;;;5092252;28;20026;-74
2021/06/04 07:57:32;;;;;;;13.23;11.82;;;29.60;99.90;;;;;;5092256;28;20062;-74
2021/06/04 08:00:00;;;;;;;13.95;11.25;;;30.30;98.60;;;;;;5091712;28;20052;-73
2021/06/04 08:02:26;;;;;;;14.70;10.32;;;30.30;98.40;;;;;;5090936;28;20043;-74
2021/06/04 08:04:52;;;;;;;14.25;11.02;;;30.60;98.70;;;;;;5092077;28;20437;-74
2021/06/04 08:07:17;;;;;;;16.20;12.38;;;31.60;95.80;;;;;;5092254;28;20065;-74
2021/06/04 08:09:46;;;;;;;16.92;10.48;;;32.40;92.60;;;;;;5090768;28;20389;-74
2021/06/04 08:12:15;;;;;;;10.65;7.68;;;32.20;92.50;;;;;;5090883;28;20456;-74
2021/06/04 08:14:41;;;;;;;12.53;8.57;;;32.90;91.60;;;;;;5091655;28;20030;-73
2021/06/04 08:17:07;;;;;;;13.23;9.43;;;33.30;90.50;;;;;;5091957;28;20028;-74
2021/06/04 08:19:37;;;;;;;12.38;9.88;;;33.20;89.60;;;;;;5091860;28;20024;-74
2021/06/04 08:22:03;;;;;;;;;;;33.10;88.10;;;;;;5092431;28;20055;-74
2021/06/04 08:24:32;;;;;;;15.02;9.02;;;33.10;89.70;;;;;;5091734;28;19968;-74
2021/06/04 08:27:03;;;;;;;10.73;8.63;;;33.50;87.50;;;;;;5090826;28;20111;-74
2021/06/04 08:29:31;;;;;;;11.30;9.25;;;33.50;85.10;;;;;;5091554;28;20044;-74
2021/06/04 08:32:00;;;;;;;12.10;7.93;;;34.10;84.00;;;;;;5091794;28;20497;-74
2021/06/04 08:34:29;;;;;;;9.40;7.68;;;35.00;78.70;;;;;;5078587;28;20037;-74
2021/06/04 08:36:55;;;;;;;8.13;7.27;;;35.80;74.40;;;;;;5071618;28;20039;-74
2021/06/04 08:39:29;;;;;;;7.97;6.25;;;35.90;71.40;;;;;;5071447;28;20285;-74
2021/06/04 08:42:06;;;;;;;8.02;6.30;;;35.60;71.40;;;;;;5071662;28;20033;-74
2021/06/04 08:45:13;;;;;;;7.72;6.55;;;35.80;71.50;;;;;;5070653;28;20466;-74
2021/06/04 08:47:42;;;;;;;12.52;7.93;;;36.40;67.50;;;;;;5071459;28;20059;-73
2021/06/04 08:50:16;;;;;;;19.05;7.78;;;36.00;68.20;;;;;;5070015;28;20025;-74
2021/06/04 08:52:56;;;;;;;11.25;7.90;;;35.70;69.50;;;;;;5071408;28;20035;-73
2021/06/04 08:55:31;;;;;;;8.43;7.47;;;36.20;69.80;;;;;;5071262;28;20028;-73
2021/06/04 08:58:05;;;;;;;10.23;6.70;;;36.90;65.40;;;;;;5070211;28;20514;-72
2021/06/04 09:00:40;;;;;;;12.30;8.15;;;37.70;63.90;;;;;;5071232;28;20028;-73
2021/06/04 09:03:22;;;;;;;10.82;7.30;;;37.80;61.50;;;;;;5072305;28;20485;-73
2021/06/04 09:05:58;;;;;;;12.82;7.10;;;37.60;60.70;;;;;;5070106;28;20028;-73
2021/06/04 09:08:39;;;;;;;7.93;6.20;;;37.50;60.10;;;;;;5071378;28;20107;-74
2021/06/04 09:11:35;;;;;;;8.35;7.07;;;38.50;58.20;;;;;;5071834;28;20036;-74
2021/06/04 09:14:01;;;;;;;10.52;6.68;;;39.40;54.50;;;;;;5075288;28;20028;-74
2021/06/04 09:16:54;;;;;;;11.30;7.57;;;39.20;55.30;;;;;;5073749;28;20104;-74
2021/06/04 09:19:33;;;;;;;9.00;7.07;;;39.30;54.40;;;;;;5074953;28;20024;-74
2021/06/04 09:21:59;;;;;;;14.80;10.20;;;39.70;53.40;;;;;;5075552;28;20025;-75
2021/06/04 09:24:35;;;;;;;11.05;7.85;;;38.50;52.90;;;;;;5074926;28;20036;-74
2021/06/04 09:27:01;;;;;;;10.68;8.30;;;38.50;53.70;;;;;;5075125;28;20059;-75
2021/06/04 09:29:33;;;;;;;13.80;9.52;;;39.60;53.50;;;;;;5074715;28;20045;-73
2021/06/04 09:32:20;;;;;;;12.52;8.85;;;40.60;50.30;;;;;;5074930;28;20031;-74
2021/06/04 09:34:48;;;;;;;14.27;10.77;;;40.50;50.20;;;;;;5091008;28;20024;-73
2021/06/04 09:37:30;;;;;;;12.95;9.45;;;39.70;49.70;;;;;;5095031;28;20105;-73
2021/06/04 09:40:07;;;;;;;11.07;8.75;;;38.80;51.40;;;;;;5094775;28;20054;-73
2021/06/04 09:42:34;;;;;;;14.25;9.13;;;37.80;52.40;;;;;;5095153;28;20024;-73
2021/06/04 09:45:15;;;;;;;11.57;6.97;;;38.00;52.90;;;;;;5095485;28;20446;-73
2021/06/04 09:47:59;;;;;;;10.60;7.03;;;38.50;52.40;;;;;;5094672;28;20020;-73
2021/06/04 09:50:52;;;;;;;14.45;8.40;;;39.30;51.20;;;;;;5094224;28;20032;-74
2021/06/04 09:53:21;;;;;;;12.20;9.15;;;40.50;49.80;;;;;;5093654;28;20077;-73
2021/06/04 09:55:46;;;;;;;11.45;8.68;;;39.70;50.80;;;;;;5094494;28;20020;-74
2021/06/04 09:58:12;;;;;;;12.60;9.32;;;38.60;52.80;;;;;;5094503;28;20354;-73
2021/06/04 10:00:39;;;;;;;11.73;8.48;;;38.60;52.50;;;;;;5093308;28;20077;-73
2021/06/04 10:03:39;;;;;;;8.77;7.82;;;38.70;52.50;;;;;;5092135;28;20054;-74
2021/06/04 10:06:05;;;;;;;10.93;7.45;;;39.30;51.50;;;;;;5074005;28;20024;-73
2021/06/04 10:08:31;;;;;;;10.50;9.40;;;39.70;51.60;;;;;;5074274;28;20078;-73
2021/06/04 10:11:12;;;;;;;8.73;6.72;;;40.00;50.50;;;;;;5072959;28;20012;-73
2021/06/04 10:13:53;;;;;;;10.40;7.53;;;40.50;50.90;;;;;;5073978;28;20032;-74
2021/06/04 10:16:28;;;;;;;11.98;8.10;;;40.90;51.20;;;;;;5072842;28;20024;-75
2021/06/04 10:18:55;;;;;;;9.27;6.97;;;41.50;49.60;;;;;;5074106;28;20050;-73
2021/06/04 10:21:33;;;;;;;10.75;7.93;;;42.30;48.80;;;;;;5073961;28;20028;-73
2021/06/04 10:24:01;;;;;;;12.93;9.18;;;42.60;47.40;;;;;;5073567;28;20115;-74
2021/06/04 10:26:36;;;;;;;12.55;9.98;;;42.90;47.00;;;;;;5073780;28;20025;-73
2021/06/04 10:29:04;;;;;;;10.18;8.32;;;40.90;48.80;;;;;;5073557;28;20049;-73
2021/06/04 10:31:57;;;;;;;10.57;8.68;;;40.40;50.40;;;;;;5073626;28;20453;-73
2021/06/04 10:34:39;;;;;;;15.30;8.23;;;40.20;49.50;;;;;;5085026;28;20038;-74
2021/06/04 10:37:10;;;;;;;13.52;8.85;;;41.20;49.20;;;;;;5093907;28;20028;-74
2021/06/04 10:39:50;;;;;;;13.77;8.68;;;41.70;48.90;;;;;;5093666;28;20093;-74
2021/06/04 10:42:55;;;;;;;12.93;8.75;;;42.50;47.90;;;;;;5093689;28;20105;-74
2021/06/04 10:45:28;;;;;;;13.27;9.85;;;42.60;48.40;;;;;;5093147;28;20048;-74
2021/06/04 10:48:02;;;;;;;9.20;7.00;;;42.90;47.20;;;;;;5093729;28;20068;-73
2021/06/04 10:50:39;;;;;;;12.73;7.13;;;42.40;48.00;;;;;;5093405;28;20423;-74
2021/06/04 10:53:22;;;;;;;14.02;8.82;;;42.50;48.00;;;;;;5093386;28;20102;-74
2021/06/04 10:56:07;;;;;;;13.10;9.25;;;42.50;47.40;;;;;;5092354;28;20020;-74
2021/06/04 10:58:40;;;;;;;12.07;8.75;;;41.90;48.70;;;;;;5093313;28;20028;-74
2021/06/04 11:01:14;;;;;;;14.48;8.70;;;41.40;48.30;;;;;;5093139;28;20024;-73
2021/06/04 11:04:07;;;;;;;8.60;7.70;;;41.30;48.90;;;;;;5093011;28;20020;-74
2021/06/04 11:06:54;;;;;;;8.88;7.40;;;41.90;48.00;;;;;;5091970;28;20424;-74
2021/06/04 11:09:53;;;;;;;10.85;7.53;;;41.30;48.00;;;;;;5092918;28;20032;-72
2021/06/04 11:12:41;;;;;;;8.52;7.38;;;40.60;49.20;;;;;;5091428;28;20089;-73
2021/06/04 11:15:20;;;;;;;9.50;7.07;;;40.20;49.70;;;;;;5092832;28;20078;-73
2021/06/04 11:17:56;;;;;;;7.88;7.00;;;40.80;49.20;;;;;;5092804;28;20480;-74
2021/06/04 11:20:36;;;;;;;9.77;7.80;;;41.70;47.10;;;;;;5092847;28;20027;-73
2021/06/04 11:23:21;;;;;;;9.05;7.07;;;42.00;46.60;;;;;;5092799;28;20028;-73
2021/06/04 11:25:59;;;;;;;12.73;8.52;;;42.40;47.20;;;;;;5092828;28;20464;-74
2021/06/04 11:28:38;;;;;;;10.90;8.20;;;42.80;45.80;;;;;;5092414;28;20054;-73
2021/06/04 11:31:10;;;;;;;8.35;6.75;;;42.60;46.50;;;;;;5092604;28;20467;-74
2021/06/04 11:33:38;;;;;;;11.20;7.50;;;42.20;46.50;;;;;;5091944;28;20428;-74
2021/06/04 11:36:25;;;;;;;9.45;6.53;;;41.90;47.40;;;;;;5088108;28;20040;-66
2021/06/04 11:39:00;;;;;;;8.88;6.63;;;42.40;46.30;;;;;;5072724;28;20038;-66
2021/06/04 11:41:42;;;;;;;9.32;7.60;;;42.00;46.60;;;;;;5072641;28;20039;-65
2021/06/04 11:44:46;;;;;;;13.55;7.30;;;40.80;47.50;;;;;;5071360;28;20021;-64
2021/06/04 11:47:11;;;;;;;10.52;8.38;;;39.60;47.90;;;;;;5070164;28;20069;-65
2021/06/04 11:49:58;;;;;;;12.50;8.57;;;37.50;50.80;;;;;;5070379;28;20161;-66
2021/06/04 11:52:33;;;;;;;10.57;8.50;;;35.90;53.70;;;;;;5069985;28;20031;-64
2021/06/04 11:55:26;;;;;;;11.52;9.77;;;34.40;56.00;;;;;;5070005;28;20534;-64
2021/06/04 11:57:54;;;;;;;14.25;11.57;;;32.80;57.40;;;;;;5069843;28;20029;-64
2021/06/04 12:00:28;;;;;;;14.27;10.85;;;31.40;60.00;;;;;;5069727;28;20033;-64
2021/06/04 12:03:15;;;;;;;11.90;9.68;;;30.60;62.10;;;;;;5069747;28;20107;-65
2021/06/04 12:05:43;;;;;;;12.27;9.05;;;30.20;63.30;;;;;;5065011;28;20453;-64
2021/06/04 12:08:14;;;;;;;11.43;8.73;;;30.00;64.40;;;;;;5089806;28;20031;-66
2021/06/04 12:10:50;;;;;;;12.00;8.73;;;29.80;64.60;;;;;;5089652;28;20028;-63
2021/06/04 12:13:30;;;;;;;11.38;8.85;;;29.60;64.30;;;;;;5089881;28;20063;-65
2021/06/04 12:16:16;;;;;;;10.18;8.93;;;29.60;64.80;;;;;;5089840;28;20058;-64
2021/06/04 12:19:00;;;;;;;14.27;9.68;;;29.50;65.60;;;;;;5090793;28;20028;-64
2021/06/04 12:21:37;;;;;;;13.88;8.57;;;29.40;66.20;;;;;;5092232;28;20035;-65
2021/06/04 12:24:08;;;;;;;15.52;9.77;;;29.40;67.10;;;;;;5091934;28;20109;-65
2021/06/04 12:26:43;;;;;;;12.55;9.60;;;29.30;67.40;;;;;;5092196;28;20357;-63
2021/06/04 12:29:20;;;;;;;13.15;10.45;;;29.50;67.60;;;;;;5091808;28;20055;-63
2021/06/04 12:31:53;;;;;;;10.60;8.68;;;29.20;68.50;;;;;;5091014;28;20103;-64
2021/06/04 12:34:39;;;;;;;11.45;7.85;;;29.20;69.00;;;;;;5092237;28;20469;-65
2021/06/04 12:37:26;;;;;;;10.05;8.27;;;29.60;68.90;;;;;;5092367;28;20081;-65
2021/06/04 12:40:01;;;;;;;11.05;8.57;;;29.90;67.70;;;;;;5092786;28;20035;-65
2021/06/04 12:42:30;;;;;;;10.15;9.00;;;30.20;66.80;;;;;;5092933;28;20024;-64
2021/06/04 12:45:16;;;;;;;11.15;8.93;;;30.40;67.40;;;;;;5092434;28;20051;-64
2021/06/04 12:48:03;;;;;;;9.57;8.30;;;30.60;66.80;;;;;;5096073;28;20099;-65
2021/06/04 12:50:36;;;;;;;9.30;8.13;;;30.80;65.80;;;;;;5095943;28;20050;-65
2021/06/04 12:53:20;;;;;;;14.68;9.20;;;31.00;66.60;;;;;;5095090;28;20024;-66
2021/06/04 12:56:08;;;;;;;12.93;8.65;;;31.40;65.10;;;;;;5096041;28;20049;-65
2021/06/04 12:59:08;;;;;;;11.52;9.45;;;31.60;64.40;;;;;;5095643;28;20040;-65
2021/06/04 13:01:53;;;;;;;10.85;8.80;;;32.10;64.30;;;;;;5095928;28;20050;-65
2021/06/04 13:04:26;;;;;;;10.48;8.38;;;32.80;62.10;;;;;;5095687;28;20307;-66